createdAt,value
2022-11-24T00:01:15.040Z,100.95
2022-11-24T00:03:47.023Z,58.67
2022-11-24T00:06:15.768Z,125.20
2022-11-24T00:08:45.480Z,70.70
2022-11-24T00:11:35.235Z,70.95
2022-11-24T00:14:03.947Z,66.47
2022-11-24T00:16:37.081Z,92.40
2022-11-24T00:19:11.396Z,91.07
2022-11-24T00:21:39.893Z,118.15
2022-11-24T00:24:07.249Z,105.07
2022-11-24T00:26:36.925Z,36.97
2022-11-24T00:29:07.221Z,39.13
2022-11-24T00:31:38.149Z,52.33
2022-11-24T00:34:12.818Z,39.92
2022-11-24T00:36:41.019Z,63.40
2022-11-24T00:39:13.298Z,58.17
2022-11-24T00:41:41.645Z,89.75
2022-11-24T00:44:08.875Z,114.32
2022-11-24T00:46:36.320Z,27.52
2022-11-24T00:49:04.176Z,109.82
2022-11-24T00:51:31.680Z,58.58
2022-11-24T00:54:00.712Z,55.22
2022-11-24T00:56:29.108Z,79.63
2022-11-24T00:58:56.640Z,40.97
2022-11-24T01:01:27.368Z,96.72
2022-11-24T01:03:55.292Z,113.82
2022-11-24T01:06:27.966Z,42.95
2022-11-24T01:08:56.992Z,73.45
2022-11-24T01:11:26.596Z,54.40
2022-11-24T01:13:57.422Z,76.20
2022-11-24T01:16:31.052Z,57.60
2022-11-24T01:18:58.362Z,37.03
2022-11-24T01:21:25.704Z,32.03
2022-11-24T01:23:52.930Z,46.88
2022-11-24T01:26:22.417Z,22.52
2022-11-24T01:31:26.736Z,34.42
2022-11-24T01:33:54.396Z,46.08
2022-11-24T01:36:22.054Z,93.95
2022-11-24T01:38:49.347Z,59.95
2022-11-24T01:41:25.013Z,62.63
2022-11-24T01:43:54.700Z,23.48
2022-11-24T01:46:36.541Z,67.75
2022-11-24T01:49:40.183Z,31.65
2022-11-24T01:52:18.488Z,51.00
2022-11-24T01:54:52.808Z,81.80
2022-11-24T01:57:28.652Z,34.83
2022-11-24T02:00:07.154Z,78.50
2022-11-24T02:02:44.915Z,37.53
2022-11-24T02:05:35.862Z,77.93
2022-11-24T02:08:03.588Z,51.45
2022-11-24T02:10:30.939Z,35.72
2022-11-24T02:13:00.109Z,142.15
2022-11-24T02:15:28.021Z,22.45
2022-11-24T02:17:55.199Z,25.88
2022-11-24T02:20:22.457Z,45.00
2022-11-24T02:23:18.688Z,70.82
2022-11-24T02:26:04.963Z,200.43
2022-11-24T02:28:32.434Z,53.50
2022-11-24T02:31:01.114Z,47.15
2022-11-24T02:33:29.251Z,61.58
2022-11-24T02:35:56.700Z,93.18
2022-11-24T02:38:32.515Z,247.27
2022-11-24T02:41:05.246Z,47.90
2022-11-24T02:43:42.110Z,53.03
2022-11-24T02:46:10.303Z,80.70
2022-11-24T02:48:38.669Z,48.28
2022-11-24T02:51:05.982Z,52.38
2022-11-24T02:53:33.320Z,39.42
2022-11-24T02:56:00.592Z,60.65
2022-11-24T02:58:27.858Z,208.88
2022-11-24T03:00:56.690Z,231.75
2022-11-24T03:03:24.665Z,318.35
2022-11-24T03:05:51.953Z,42.97
2022-11-24T03:08:19.758Z,81.00
2022-11-24T03:10:47.001Z,43.22
2022-11-24T03:13:14.297Z,49.90
2022-11-24T03:15:41.488Z,37.63
2022-11-24T03:18:08.842Z,98.43
2022-11-24T03:20:36.012Z,41.67
2022-11-24T03:23:03.198Z,45.00
2022-11-24T03:25:30.444Z,43.10
2022-11-24T03:27:57.826Z,39.47
2022-11-24T03:30:25.409Z,36.10
2022-11-24T03:32:53.310Z,44.00
2022-11-24T03:35:21.735Z,76.22
2022-11-24T03:37:49.181Z,74.53
2022-11-24T03:40:17.498Z,71.90
2022-11-24T03:42:44.712Z,173.93
2022-11-24T03:45:37.830Z,97.10
2022-11-24T03:47:59.010Z,33.63
2022-11-24T03:50:26.202Z,48.92
2022-11-24T03:52:53.344Z,70.95
2022-11-24T03:55:20.509Z,33.92
2022-11-24T03:57:47.726Z,62.00
2022-11-24T04:00:15.812Z,27.92
2022-11-24T04:02:43.126Z,76.07
2022-11-24T04:05:10.435Z,45.08
2022-11-24T04:07:37.777Z,32.53
2022-11-24T04:10:06.555Z,32.10
2022-11-24T04:12:45.982Z,29.92
2022-11-24T04:15:17.886Z,37.13
2022-11-24T04:17:47.429Z,26.10
2022-11-24T04:20:15.978Z,23.27
2022-11-24T04:22:43.518Z,12.32
2022-11-24T04:25:11.131Z,19.60
2022-11-24T04:27:38.716Z,22.48
2022-11-24T04:30:07.432Z,30.45
2022-11-24T04:32:34.982Z,21.27
2022-11-24T04:35:03.553Z,13.98
2022-11-24T04:37:30.896Z,12.83
2022-11-24T04:39:58.139Z,17.58
2022-11-24T04:42:25.367Z,27.67
2022-11-24T04:44:52.528Z,28.50
2022-11-24T04:47:24.888Z,29.55
2022-11-24T04:49:52.997Z,31.25
2022-11-24T04:52:23.373Z,26.83
2022-11-24T04:54:50.661Z,31.58
2022-11-24T04:57:20.280Z,40.78
2022-11-24T04:59:48.677Z,36.08
2022-11-24T05:02:15.969Z,28.67
2022-11-24T05:04:43.232Z,49.85
2022-11-24T05:07:19.690Z,33.13
2022-11-24T05:10:06.337Z,27.38
2022-11-24T05:12:33.477Z,42.22
2022-11-24T05:15:03.165Z,55.15
2022-11-24T05:17:33.119Z,34.60
2022-11-24T05:20:00.412Z,44.92
2022-11-24T05:22:29.437Z,75.45
2022-11-24T05:24:56.682Z,33.85
2022-11-24T05:27:23.953Z,36.97
2022-11-24T05:29:51.047Z,44.20
2022-11-24T05:32:18.185Z,24.40
2022-11-24T05:34:45.394Z,24.70
2022-11-24T05:37:12.466Z,38.50
2022-11-24T05:39:39.581Z,90.15
2022-11-24T05:42:26.218Z,35.45
2022-11-24T05:44:53.722Z,36.30
2022-11-24T05:47:21.971Z,30.70
2022-11-24T05:49:49.405Z,28.35
2022-11-24T05:52:16.807Z,31.75
2022-11-24T05:54:43.969Z,35.88
2022-11-24T05:57:11.093Z,34.75
2022-11-24T05:59:38.531Z,27.05
2022-11-24T06:02:05.743Z,33.60
2022-11-24T06:04:33.298Z,36.72
2022-11-24T06:07:00.712Z,27.35
2022-11-24T06:09:27.961Z,35.40
2022-11-24T06:11:55.483Z,30.25
2022-11-24T06:14:22.866Z,28.35
2022-11-24T06:16:50.114Z,21.95
2022-11-24T06:19:17.293Z,15.55
2022-11-24T06:21:44.386Z,19.13
2022-11-24T06:24:11.614Z,27.95
2022-11-24T06:26:38.779Z,28.45
2022-11-24T06:29:06.219Z,30.70
2022-11-24T06:31:33.604Z,45.60
2022-11-24T06:34:01.124Z,31.67
2022-11-24T06:36:28.298Z,39.58
2022-11-24T06:38:55.591Z,26.67
2022-11-24T06:41:22.786Z,20.98
2022-11-24T06:43:49.977Z,26.88
2022-11-24T06:46:17.140Z,28.45
2022-11-24T06:48:44.371Z,20.15
2022-11-24T06:51:12.802Z,25.98
2022-11-24T06:53:40.824Z,23.80
2022-11-24T06:56:16.281Z,32.50
2022-11-24T06:58:47.807Z,43.67
2022-11-24T07:01:21.664Z,28.38
2022-11-24T07:03:49.949Z,27.17
2022-11-24T07:06:18.855Z,27.30
2022-11-24T07:08:46.665Z,28.38
2022-11-24T07:11:21.175Z,20.20
2022-11-24T07:13:54.982Z,21.55
2022-11-24T07:16:26.899Z,22.35
2022-11-24T07:18:54.985Z,21.83
2022-11-24T07:21:24.147Z,22.33
2022-11-24T07:23:56.697Z,17.17
2022-11-24T07:26:25.627Z,13.35
2022-11-24T07:28:53.071Z,12.60
2022-11-24T07:31:24.340Z,14.45
2022-11-24T07:33:53.899Z,9.95
2022-11-24T07:38:49.213Z,13.75
2022-11-24T07:41:19.129Z,16.13
2022-11-24T07:43:47.429Z,14.85
2022-11-24T07:46:18.488Z,11.80
2022-11-24T07:48:46.220Z,12.35
2022-11-24T07:51:14.217Z,12.85
2022-11-24T07:53:41.440Z,17.48
2022-11-24T07:56:09.487Z,15.82
2022-11-24T07:58:37.708Z,20.67
2022-11-24T08:01:15.195Z,17.73
2022-11-24T08:03:44.114Z,18.17
2022-11-24T08:06:25.166Z,18.45
2022-11-24T08:08:55.597Z,14.10
2022-11-24T08:11:23.450Z,14.38
2022-11-24T08:13:50.765Z,14.65
2022-11-24T08:16:19.724Z,16.30
2022-11-24T08:18:52.515Z,17.50
2022-11-24T08:21:22.448Z,14.52
2022-11-24T08:23:53.177Z,18.73
2022-11-24T08:26:20.376Z,11.63
2022-11-24T08:28:52.133Z,10.38
2022-11-24T08:31:19.395Z,10.70
2022-11-24T08:33:47.153Z,10.95
2022-11-24T08:36:18.232Z,21.13
2022-11-24T08:38:46.230Z,7.55
2022-11-24T08:41:16.297Z,8.52
2022-11-24T08:43:43.768Z,11.23
2022-11-24T08:46:16.378Z,13.07
2022-11-24T08:48:47.613Z,11.68
2022-11-24T08:51:19.008Z,9.38
2022-11-24T08:53:46.152Z,16.63
2022-11-24T08:56:13.754Z,10.55
2022-11-24T08:58:41.687Z,9.60
2022-11-24T09:01:17.356Z,10.30
2022-11-24T09:03:50.701Z,14.30
2022-11-24T09:06:24.942Z,14.23
2022-11-24T09:08:54.837Z,15.32
2022-11-24T09:11:23.475Z,17.98
2022-11-24T09:13:51.278Z,24.20
2022-11-24T09:16:26.436Z,29.92
2022-11-24T09:19:03.357Z,23.02
2022-11-24T09:21:33.778Z,14.40
2022-11-24T09:24:01.169Z,13.43
2022-11-24T09:26:32.046Z,13.10
2022-11-24T09:29:01.443Z,14.48
2022-11-24T09:31:33.836Z,12.48
2022-11-24T09:34:10.544Z,12.35
2022-11-24T09:36:38.102Z,13.05
2022-11-24T09:39:05.772Z,13.30
2022-11-24T09:41:55.815Z,21.23
2022-11-24T09:44:48.376Z,11.05
2022-11-24T09:47:32.617Z,14.25
2022-11-24T09:50:12.523Z,13.85
2022-11-24T09:53:14.932Z,10.48
2022-11-24T09:55:48.240Z,9.57
2022-11-24T09:58:36.553Z,16.63
2022-11-24T10:01:25.862Z,19.27
2022-11-24T10:03:54.305Z,14.98
2022-11-24T10:06:37.724Z,11.95
2022-11-24T10:09:32.249Z,10.55
2022-11-24T10:12:53.334Z,16.25
2022-11-24T10:15:57.968Z,18.30
2022-11-24T10:18:58.886Z,22.70
2022-11-24T10:21:53.535Z,15.68
2022-11-24T10:24:49.014Z,16.17
2022-11-24T10:27:19.714Z,16.20
2022-11-24T10:29:51.226Z,12.98
2022-11-24T10:32:30.946Z,11.68
2022-11-24T10:35:19.294Z,13.63
2022-11-24T10:38:20.500Z,14.45
2022-11-24T10:42:03.398Z,19.08
2022-11-24T10:44:30.601Z,14.52
2022-11-24T10:46:58.122Z,18.55
2022-11-24T10:49:30.240Z,19.38
2022-11-24T10:52:13.464Z,17.08
2022-11-24T10:55:02.112Z,16.27
2022-11-24T10:57:35.933Z,14.85
2022-11-24T11:00:22.935Z,16.17
2022-11-24T11:03:10.823Z,14.95
2022-11-24T11:06:03.831Z,16.48
2022-11-24T11:08:32.079Z,17.25
2022-11-24T11:11:28.615Z,19.30
2022-11-24T11:14:04.321Z,23.10
2022-11-24T11:16:53.333Z,16.42
2022-11-24T11:20:00.090Z,18.80
2022-11-24T11:22:31.740Z,18.67
2022-11-24T11:25:11.288Z,32.05
2022-11-24T11:27:41.021Z,31.00
2022-11-24T11:36:15.894Z,29.08
2022-11-24T11:38:44.428Z,39.90
2022-11-24T11:41:22.004Z,40.67
2022-11-24T11:44:01.447Z,29.75
2022-11-24T11:46:31.072Z,35.38
2022-11-24T11:48:58.504Z,32.70
2022-11-24T11:52:04.659Z,36.60
2022-11-24T11:55:16.931Z,30.85
2022-11-24T11:58:17.629Z,35.05
2022-11-24T12:01:23.285Z,29.13
2022-11-24T12:03:58.252Z,23.13
2022-11-24T12:06:46.755Z,33.55
2022-11-24T12:09:55.227Z,25.67
2022-11-24T12:12:55.144Z,30.53
2022-11-24T12:15:47.171Z,37.67
2022-11-24T12:19:03.967Z,31.05
2022-11-24T12:22:07.026Z,31.27
2022-11-24T12:25:09.578Z,22.95
2022-11-24T12:28:13.712Z,29.27
2022-11-24T12:31:31.997Z,32.42
2022-11-24T12:34:21.647Z,32.20
2022-11-24T12:37:21.259Z,28.88
2022-11-24T12:40:27.476Z,24.40
2022-11-24T12:43:31.908Z,25.10
2022-11-24T12:46:36.112Z,27.08
2022-11-24T12:49:31.029Z,21.05
2022-11-24T12:52:23.917Z,24.58
2022-11-24T12:54:51.916Z,21.27
2022-11-24T12:57:41.251Z,22.95
2022-11-24T13:00:40.149Z,21.55
2022-11-24T13:03:36.480Z,15.20
2022-11-24T13:06:22.334Z,15.30
2022-11-24T13:08:52.122Z,17.42
2022-11-24T13:11:22.360Z,19.75
2022-11-24T13:14:01.720Z,14.48
2022-11-24T13:16:36.279Z,12.02
2022-11-24T13:19:20.272Z,10.35
2022-11-24T13:22:03.232Z,7.13
2022-11-24T13:24:39.350Z,6.97
2022-11-24T13:27:16.102Z,9.13
2022-11-24T13:29:49.253Z,7.03
2022-11-24T13:32:20.453Z,4.78
2022-11-24T13:34:54.327Z,5.78
2022-11-24T13:37:34.820Z,4.05
2022-11-24T13:40:22.807Z,16.75
2022-11-24T13:42:56.962Z,12.75
2022-11-24T13:45:39.459Z,6.00
2022-11-24T13:48:18.821Z,8.13
2022-11-24T13:50:55.366Z,12.27
2022-11-24T13:53:44.646Z,16.42
2022-11-24T13:56:11.693Z,9.43
2022-11-24T13:58:43.728Z,12.15
2022-11-24T14:01:28.062Z,7.75
2022-11-24T14:04:32.568Z,10.13
2022-11-24T14:07:10.567Z,19.88
2022-11-24T14:09:45.060Z,34.83
2022-11-24T14:12:25.486Z,28.13
2022-11-24T14:15:12.123Z,19.77
2022-11-24T14:17:39.246Z,17.58
2022-11-24T14:20:22.739Z,20.10
2022-11-24T14:22:50.529Z,12.35
2022-11-24T14:25:30.920Z,19.50
2022-11-24T14:27:59.750Z,14.48
2022-11-24T14:30:27.173Z,23.30
2022-11-24T14:33:03.425Z,18.15
2022-11-24T14:35:34.031Z,21.05
2022-11-24T14:38:03.782Z,20.05
2022-11-24T14:40:50.850Z,19.35
2022-11-24T14:43:29.768Z,15.35
2022-11-24T14:46:09.179Z,14.77
2022-11-24T14:51:29.912Z,19.25
2022-11-24T14:54:13.121Z,20.90
2022-11-24T14:56:40.506Z,22.45
2022-11-24T14:59:26.457Z,35.55
2022-11-24T15:01:54.347Z,22.27
2022-11-24T15:07:28.561Z,21.17
2022-11-24T15:09:58.276Z,16.23
2022-11-24T15:12:47.682Z,29.90
2022-11-24T15:15:14.735Z,21.48
2022-11-24T15:17:49.558Z,33.55
2022-11-24T15:20:26.158Z,25.85
2022-11-24T15:23:15.574Z,33.08
2022-11-24T15:28:10.009Z,22.58
2022-11-24T15:30:37.835Z,27.95
2022-11-24T15:33:15.317Z,33.42
2022-11-24T15:35:43.879Z,36.63
2022-11-24T15:38:11.496Z,40.28
2022-11-24T15:40:41.550Z,29.15
2022-11-24T15:43:40.211Z,24.13
2022-11-24T15:46:08.906Z,35.22
2022-11-24T15:48:36.095Z,28.60
2022-11-24T15:51:12.710Z,29.08
2022-11-24T15:53:47.643Z,22.90
2022-11-24T15:56:37.097Z,26.85
2022-11-24T16:01:33.459Z,23.90
2022-11-24T16:04:01.436Z,22.63
2022-11-24T16:06:28.656Z,21.45
2022-11-24T16:08:57.522Z,22.45
2022-11-24T16:11:25.260Z,17.73
2022-11-24T16:13:54.017Z,22.52
2022-11-24T16:16:24.081Z,17.48
2022-11-24T16:18:51.330Z,21.48
2022-11-24T16:21:18.468Z,15.38
2022-11-24T16:23:46.068Z,14.93
2022-11-24T16:26:13.363Z,12.63
2022-11-24T16:28:41.461Z,20.83
2022-11-24T16:31:08.619Z,14.50
2022-11-24T16:33:39.935Z,14.05
2022-11-24T16:36:07.936Z,11.25
2022-11-24T16:38:35.096Z,12.35
2022-11-24T16:41:02.295Z,16.05
2022-11-24T16:43:29.573Z,12.18
2022-11-24T16:46:21.001Z,12.75
2022-11-24T16:48:55.171Z,19.58
2022-11-24T16:51:23.924Z,15.30
2022-11-24T16:53:58.514Z,12.77
2022-11-24T16:56:27.614Z,11.68
2022-11-24T16:58:55.158Z,11.02
2022-11-24T17:01:23.124Z,10.50
2022-11-24T17:03:50.345Z,18.60
2022-11-24T17:06:17.727Z,17.23
2022-11-24T17:08:46.656Z,29.08
2022-11-24T17:11:23.892Z,10.85
2022-11-24T17:13:51.156Z,13.55
2022-11-24T17:16:22.040Z,13.88
2022-11-24T17:18:50.319Z,17.10
2022-11-24T17:21:24.198Z,13.57
2022-11-24T17:23:56.958Z,14.25
2022-11-24T17:26:24.731Z,13.13
2022-11-24T17:28:52.851Z,17.25
2022-11-24T17:31:23.291Z,11.77
2022-11-24T17:33:53.209Z,11.88
2022-11-24T17:36:20.864Z,17.58
2022-11-24T17:38:51.033Z,19.58
2022-11-24T17:41:19.138Z,19.20
2022-11-24T17:43:55.140Z,20.75
2022-11-24T17:46:23.877Z,22.95
2022-11-24T17:48:51.261Z,30.33
2022-11-24T17:51:21.796Z,27.80
2022-11-24T17:53:51.627Z,19.90
2022-11-24T17:56:25.200Z,19.80
2022-11-24T17:58:58.802Z,36.15
2022-11-24T18:01:29.557Z,24.00
2022-11-24T18:03:57.738Z,29.65
2022-11-24T18:06:25.604Z,39.47
2022-11-24T18:08:55.672Z,31.80
2022-11-24T18:11:31.677Z,44.38
2022-11-24T18:14:04.192Z,43.13
2022-11-24T18:16:33.816Z,45.03
2022-11-24T18:21:43.082Z,45.17
2022-11-24T18:24:11.947Z,39.03
2022-11-24T18:26:41.518Z,36.85
2022-11-24T18:29:10.526Z,32.42
2022-11-24T18:31:38.267Z,37.80
2022-11-24T18:34:06.431Z,47.60
2022-11-24T18:36:34.447Z,52.92
2022-11-24T18:39:07.888Z,46.30
2022-11-24T18:41:35.946Z,40.58
2022-11-24T18:44:07.086Z,39.40
2022-11-24T18:46:34.580Z,32.03
2022-11-24T18:49:02.083Z,36.08
2022-11-24T18:51:29.671Z,33.38
2022-11-24T18:54:02.353Z,43.85
2022-11-24T18:56:29.930Z,45.22
2022-11-24T18:58:57.707Z,50.00
2022-11-24T19:01:28.096Z,40.28
2022-11-24T19:03:58.356Z,47.88
2022-11-24T19:06:35.527Z,46.72
2022-11-24T19:09:11.365Z,44.60
2022-11-24T19:11:41.916Z,34.05
2022-11-24T19:14:13.276Z,31.33
2022-11-24T19:16:42.250Z,29.27
2022-11-24T19:19:12.018Z,23.40
2022-11-24T19:24:12.723Z,30.02
2022-11-24T19:26:40.559Z,27.42
2022-11-24T19:29:08.888Z,16.77
2022-11-24T19:31:40.049Z,21.13
2022-11-24T19:34:07.446Z,31.10
2022-11-24T19:36:35.486Z,19.25
2022-11-24T19:39:04.362Z,19.13
2022-11-24T19:41:32.358Z,33.08
2022-11-24T19:44:00.022Z,38.15
2022-11-24T19:46:29.098Z,33.08
2022-11-24T19:49:00.750Z,35.97
2022-11-24T19:51:33.443Z,32.03
2022-11-24T19:54:01.822Z,37.45
2022-11-24T19:56:33.729Z,45.17
2022-11-24T19:59:03.433Z,44.92
2022-11-24T20:04:11.881Z,32.33
2022-11-24T20:06:42.824Z,29.90
2022-11-24T20:09:12.454Z,35.05
2022-11-24T20:14:10.328Z,34.95
2022-11-24T20:16:37.736Z,32.47
2022-11-24T20:19:10.105Z,31.73
2022-11-24T20:21:39.192Z,36.13
2022-11-24T20:24:17.500Z,32.47
2022-11-24T20:26:57.593Z,35.13
2022-11-24T20:29:25.552Z,33.80
2022-11-24T20:31:55.343Z,33.15
2022-11-24T20:34:23.725Z,30.70
2022-11-24T20:36:54.547Z,29.08
2022-11-24T20:39:25.856Z,29.25
2022-11-24T20:41:55.162Z,28.02
2022-11-24T20:44:25.927Z,25.10
2022-11-24T20:46:56.206Z,21.75
2022-11-24T20:49:24.556Z,27.52
2022-11-24T20:51:56.558Z,23.75
2022-11-24T20:54:24.132Z,26.48
2022-11-24T20:56:51.556Z,39.53
2022-11-24T20:59:22.774Z,37.10
2022-11-24T21:01:51.675Z,59.10
2022-11-24T21:04:22.637Z,55.72
2022-11-24T21:06:50.210Z,33.45
2022-11-24T21:09:18.275Z,36.80
2022-11-24T21:11:45.730Z,26.17
2022-11-24T21:14:13.507Z,29.63
2022-11-24T21:16:42.404Z,23.90
2022-11-24T21:19:13.309Z,25.88
2022-11-24T21:21:41.993Z,20.45
2022-11-24T21:24:15.976Z,32.17
2022-11-24T21:26:46.925Z,29.25
2022-11-24T21:29:17.269Z,34.20
2022-11-24T21:31:44.676Z,26.88
2022-11-24T21:34:17.796Z,23.33
2022-11-24T21:36:45.437Z,21.17
2022-11-24T21:39:14.276Z,22.50
2022-11-24T21:41:42.903Z,16.02
2022-11-24T21:44:13.776Z,16.42
2022-11-24T21:46:46.169Z,13.15
2022-11-24T21:49:16.804Z,20.58
2022-11-24T21:51:44.051Z,12.55
2022-11-24T21:54:11.280Z,10.35
2022-11-24T21:56:38.436Z,11.20
2022-11-24T21:59:05.620Z,8.18
2022-11-24T22:01:32.796Z,7.65
2022-11-24T22:04:00.006Z,8.73
2022-11-24T22:06:27.383Z,7.38
2022-11-24T22:08:54.988Z,9.15
2022-11-24T22:11:24.578Z,10.02
2022-11-24T22:13:52.416Z,8.43
2022-11-24T22:16:22.579Z,11.88
2022-11-24T22:18:50.490Z,11.77
2022-11-24T22:21:29.368Z,10.73
2022-11-24T22:23:56.670Z,8.00
2022-11-24T22:26:24.995Z,5.82
2022-11-24T22:28:53.905Z,10.32
2022-11-24T22:31:27.419Z,6.57
2022-11-24T22:33:56.017Z,8.88
2022-11-24T22:36:27.824Z,6.85
2022-11-24T22:39:03.498Z,6.32
2022-11-24T22:41:34.183Z,8.15
2022-11-24T22:44:01.443Z,11.30
2022-11-24T22:46:30.846Z,9.52
2022-11-24T22:49:00.450Z,7.68
2022-11-24T22:51:34.196Z,6.70
2022-11-24T22:54:03.824Z,5.35
2022-11-24T22:56:32.923Z,5.97
2022-11-24T22:59:01.421Z,7.15
2022-11-24T23:01:30.482Z,4.05
2022-11-24T23:03:57.749Z,3.15
2022-11-24T23:06:28.122Z,3.20
2022-11-24T23:08:56.720Z,4.55
2022-11-24T23:11:37.946Z,3.10
2022-11-24T23:14:10.588Z,4.45
2022-11-24T23:16:37.874Z,3.92
2022-11-24T23:19:05.088Z,4.47
2022-11-24T23:21:35.610Z,2.42
2022-11-24T23:24:04.971Z,2.90
2022-11-24T23:26:36.859Z,2.95
2022-11-24T23:29:04.727Z,2.83
2022-11-24T23:31:32.309Z,4.25
2022-11-24T23:34:02.551Z,2.92
2022-11-24T23:36:31.205Z,6.45
2022-11-24T23:39:07.878Z,4.17
2022-11-24T23:41:35.334Z,3.35
2022-11-24T23:44:02.742Z,3.45
2022-11-24T23:46:30.509Z,2.17
2022-11-24T23:48:58.255Z,4.55
2022-11-24T23:51:29.593Z,9.02
2022-11-24T23:53:57.725Z,3.28
2022-11-24T23:56:31.888Z,1.73
2022-11-24T23:59:01.239Z,8.23
